createdAt,value
2024-05-09T00:00:06.774Z,34.66
2024-05-09T00:01:05.713Z,34.66
2024-05-09T00:02:05.648Z,34.68
2024-05-09T00:03:05.665Z,34.66
2024-05-09T00:04:05.743Z,34.66
2024-05-09T00:05:05.757Z,34.63
2024-05-09T00:06:05.880Z,34.66
2024-05-09T00:07:05.627Z,34.67
2024-05-09T00:08:05.721Z,34.66
2024-05-09T00:09:05.635Z,34.68
2024-05-09T00:10:09.222Z,34.65
2024-05-09T00:11:06.815Z,34.63
2024-05-09T00:12:05.749Z,34.71
2024-05-09T00:13:05.752Z,34.68
2024-05-09T00:14:05.710Z,34.66
2024-05-09T00:15:05.688Z,34.65
2024-05-09T00:16:05.628Z,34.65
2024-05-09T00:17:05.849Z,34.65
2024-05-09T00:18:06.374Z,34.63
2024-05-09T00:19:05.730Z,34.65
2024-05-09T00:20:14.254Z,34.64
2024-05-09T00:21:06.747Z,34.67
2024-05-09T00:22:05.665Z,34.62
2024-05-09T00:23:05.713Z,34.66
2024-05-09T00:24:05.663Z,34.63
2024-05-09T00:25:05.671Z,34.67
2024-05-09T00:26:05.736Z,34.65
2024-05-09T00:27:05.769Z,34.62
2024-05-09T00:28:05.679Z,34.62
2024-05-09T00:29:05.660Z,34.63
2024-05-09T00:30:07.293Z,34.64
2024-05-09T00:31:05.681Z,34.64
2024-05-09T00:32:05.694Z,34.64
2024-05-09T00:33:06.944Z,34.68
2024-05-09T00:34:06.077Z,34.64
2024-05-09T00:35:05.948Z,34.65
2024-05-09T00:36:05.984Z,34.62
2024-05-09T00:37:06.079Z,34.65
2024-05-09T00:38:06.419Z,34.65
2024-05-09T00:39:06.168Z,34.67
2024-05-09T00:40:07.610Z,34.59
2024-05-09T00:41:07.269Z,34.65
2024-05-09T00:42:06.208Z,34.64
2024-05-09T00:43:06.275Z,34.62
2024-05-09T00:44:06.211Z,34.63
2024-05-09T00:45:06.202Z,34.64
2024-05-09T00:46:06.196Z,34.63
2024-05-09T00:47:06.360Z,34.64
2024-05-09T00:48:06.796Z,34.60
2024-05-09T00:49:06.275Z,34.59
2024-05-09T00:50:10.112Z,34.65
2024-05-09T00:51:07.290Z,34.63
2024-05-09T00:52:06.248Z,34.59
2024-05-09T00:53:06.660Z,34.60
2024-05-09T00:54:06.208Z,34.64
2024-05-09T00:55:06.227Z,34.60
2024-05-09T00:56:06.232Z,34.59
2024-05-09T00:57:06.272Z,34.60
2024-05-09T00:58:06.198Z,34.59
2024-05-09T00:59:06.238Z,34.60
2024-05-09T01:00:12.202Z,34.62
2024-05-09T01:01:07.292Z,34.63
2024-05-09T01:02:06.302Z,34.63
2024-05-09T01:03:06.437Z,34.61
2024-05-09T01:04:06.435Z,34.60
2024-05-09T01:05:06.342Z,34.63
2024-05-09T01:06:06.244Z,34.59
2024-05-09T01:07:06.255Z,34.62
2024-05-09T01:08:06.287Z,34.60
2024-05-09T01:09:06.253Z,34.60
2024-05-09T01:10:11.707Z,34.57
2024-05-09T01:11:07.350Z,34.63
2024-05-09T01:12:06.313Z,34.57
2024-05-09T01:13:06.726Z,34.60
2024-05-09T01:14:06.264Z,34.61
2024-05-09T01:15:06.244Z,34.56
2024-05-09T01:16:06.294Z,34.64
2024-05-09T01:17:06.355Z,34.61
2024-05-09T01:18:06.475Z,34.57
2024-05-09T01:19:06.380Z,34.65
2024-05-09T01:20:10.453Z,34.63
2024-05-09T01:21:06.275Z,34.59
2024-05-09T01:22:06.269Z,34.64
2024-05-09T01:23:06.324Z,34.57
2024-05-09T01:24:06.248Z,34.62
2024-05-09T01:25:06.279Z,34.58
2024-05-09T01:26:06.320Z,34.58
2024-05-09T01:27:06.301Z,34.60
2024-05-09T01:28:06.307Z,34.61
2024-05-09T01:29:06.324Z,34.63
2024-05-09T01:30:09.539Z,34.61
2024-05-09T01:31:07.296Z,34.61
2024-05-09T01:32:06.355Z,34.62
2024-05-09T01:33:08.213Z,34.60
2024-05-09T01:34:06.318Z,34.60
2024-05-09T01:35:06.279Z,34.60
2024-05-09T01:36:06.283Z,34.57
2024-05-09T01:37:06.321Z,34.58
2024-05-09T01:38:06.459Z,34.58
2024-05-09T01:39:06.286Z,34.57
2024-05-09T01:40:09.703Z,34.58
2024-05-09T01:41:07.365Z,34.54
2024-05-09T01:42:06.272Z,34.54
2024-05-09T01:43:06.376Z,34.57
2024-05-09T01:44:06.304Z,34.58
2024-05-09T01:45:06.295Z,34.58
2024-05-09T01:46:06.290Z,34.58
2024-05-09T01:47:06.452Z,34.58
2024-05-09T01:48:06.704Z,34.56
2024-05-09T01:49:06.492Z,34.57
2024-05-09T01:50:09.070Z,34.59
2024-05-09T01:51:06.336Z,34.60
2024-05-09T01:52:06.311Z,34.58
2024-05-09T01:53:06.360Z,34.59
2024-05-09T01:54:06.310Z,34.59
2024-05-09T01:55:06.879Z,34.52
2024-05-09T01:56:06.348Z,34.55
2024-05-09T01:57:06.318Z,34.58
2024-05-09T01:58:06.355Z,34.58
2024-05-09T01:59:06.396Z,34.57
2024-05-09T02:00:07.914Z,34.58
2024-05-09T02:01:06.336Z,34.57
2024-05-09T02:02:06.414Z,34.54
2024-05-09T02:03:06.469Z,34.57
2024-05-09T02:04:06.859Z,34.58
2024-05-09T02:05:06.482Z,34.57
2024-05-09T02:06:06.552Z,34.56
2024-05-09T02:07:06.387Z,34.59
2024-05-09T02:08:06.484Z,34.57
2024-05-09T02:09:06.443Z,34.58
2024-05-09T02:10:13.672Z,34.58
2024-05-09T02:11:07.516Z,34.55
2024-05-09T02:12:06.714Z,34.56
2024-05-09T02:13:06.483Z,34.55
2024-05-09T02:14:06.490Z,34.52
2024-05-09T02:15:06.489Z,34.57
2024-05-09T02:16:06.500Z,34.57
2024-05-09T02:17:06.572Z,34.55
2024-05-09T02:18:06.689Z,34.54
2024-05-09T02:19:06.663Z,34.53
2024-05-09T02:20:06.646Z,34.55
2024-05-09T02:21:06.749Z,34.54
2024-05-09T02:22:06.637Z,34.55
2024-05-09T02:23:07.228Z,34.54
2024-05-09T02:24:06.757Z,34.54
2024-05-09T02:25:06.787Z,34.59
2024-05-09T02:26:06.951Z,34.57
2024-05-09T02:27:06.928Z,34.59
2024-05-09T02:28:06.987Z,34.57
2024-05-09T02:29:07.079Z,34.57
2024-05-09T02:30:18.348Z,34.57
2024-05-09T02:31:08.096Z,34.53
2024-05-09T02:32:07.156Z,34.55
2024-05-09T02:33:07.645Z,34.54
2024-05-09T02:34:07.238Z,34.52
2024-05-09T02:35:07.153Z,34.55
2024-05-09T02:36:07.101Z,34.54
2024-05-09T02:37:07.107Z,34.51
2024-05-09T02:38:07.234Z,34.54
2024-05-09T02:39:07.119Z,34.55
2024-05-09T02:40:11.530Z,34.55
2024-05-09T02:41:08.201Z,34.58
2024-05-09T02:42:07.156Z,34.55
2024-05-09T02:43:07.752Z,34.58
2024-05-09T02:44:07.210Z,34.57
2024-05-09T02:45:07.157Z,34.50
2024-05-09T02:46:07.180Z,34.57
2024-05-09T02:47:07.442Z,34.54
2024-05-09T02:48:07.586Z,34.54
2024-05-09T02:49:07.469Z,34.54
2024-05-09T02:50:08.262Z,34.52
2024-05-09T02:51:07.441Z,34.54
2024-05-09T02:52:07.309Z,34.49
2024-05-09T02:53:07.649Z,34.54
2024-05-09T02:54:07.450Z,34.52
2024-05-09T02:55:07.528Z,34.56
2024-05-09T02:56:07.614Z,34.55
2024-05-09T02:57:07.643Z,34.50
2024-05-09T02:58:07.706Z,34.52
2024-05-09T02:59:07.759Z,34.55
2024-05-09T03:00:12.251Z,34.52
2024-05-09T03:01:08.935Z,34.51
2024-05-09T03:02:07.898Z,34.55
2024-05-09T03:03:08.765Z,34.50
2024-05-09T03:04:08.018Z,34.54
2024-05-09T03:05:07.854Z,34.54
2024-05-09T03:06:07.813Z,34.54
2024-05-09T03:07:07.827Z,34.54
2024-05-09T03:08:08.011Z,34.54
2024-05-09T03:09:07.847Z,34.57
2024-05-09T03:10:14.924Z,34.52
2024-05-09T03:11:09.012Z,34.54
2024-05-09T03:12:08.022Z,34.51
2024-05-09T03:13:08.047Z,34.55
2024-05-09T03:14:07.953Z,34.54
2024-05-09T03:15:07.926Z,34.50
2024-05-09T03:16:07.920Z,34.51
2024-05-09T03:17:07.943Z,34.55
2024-05-09T03:18:08.111Z,34.54
2024-05-09T03:19:07.948Z,34.54
2024-05-09T03:20:17.015Z,34.56
2024-05-09T03:21:09.072Z,34.55
2024-05-09T03:22:07.968Z,34.55
2024-05-09T03:23:09.225Z,34.51
2024-05-09T03:24:07.997Z,34.51
2024-05-09T03:25:07.999Z,34.47
2024-05-09T03:26:07.980Z,34.47
2024-05-09T03:27:07.966Z,34.55
2024-05-09T03:28:08.038Z,34.54
2024-05-09T03:29:08.120Z,34.52
2024-05-09T03:30:09.939Z,34.54
2024-05-09T03:31:08.181Z,34.48
2024-05-09T03:32:08.428Z,34.56
2024-05-09T03:33:08.491Z,34.48
2024-05-09T03:34:08.432Z,34.52
2024-05-09T03:35:08.462Z,34.54
2024-05-09T03:36:11.069Z,34.48
2024-05-09T03:37:08.487Z,34.48
2024-05-09T03:38:08.553Z,34.56
2024-05-09T03:39:08.495Z,34.56
2024-05-09T03:40:14.462Z,34.49
2024-05-09T03:41:09.575Z,34.53
2024-05-09T03:42:08.509Z,34.51
2024-05-09T03:43:08.527Z,34.51
2024-05-09T03:44:08.594Z,34.51
2024-05-09T03:45:08.545Z,34.52
2024-05-09T03:46:08.547Z,34.49
2024-05-09T03:47:08.533Z,34.48
2024-05-09T03:48:08.902Z,34.48
2024-05-09T03:49:08.638Z,34.49
2024-05-09T03:50:15.173Z,34.47
2024-05-09T03:51:09.834Z,34.49
2024-05-09T03:52:08.636Z,34.52
2024-05-09T03:53:08.675Z,34.52
2024-05-09T03:54:08.645Z,34.51
2024-05-09T03:55:08.643Z,34.49
2024-05-09T03:56:08.692Z,34.48
2024-05-09T03:57:08.663Z,34.54
2024-05-09T03:58:08.712Z,34.48
2024-05-09T03:59:08.716Z,34.51
2024-05-09T04:00:17.735Z,34.51
2024-05-09T04:01:09.808Z,34.46
2024-05-09T04:02:08.887Z,34.51
2024-05-09T04:03:11.289Z,34.57
2024-05-09T04:04:08.924Z,34.57
2024-05-09T04:05:08.819Z,34.57
2024-05-09T04:06:08.798Z,34.60
2024-05-09T04:07:08.793Z,34.58
2024-05-09T04:08:08.957Z,34.62
2024-05-09T04:09:08.747Z,34.63
2024-05-09T04:10:11.301Z,34.66
2024-05-09T04:11:09.919Z,34.66
2024-05-09T04:12:08.814Z,34.65
2024-05-09T04:13:08.782Z,34.68
2024-05-09T04:14:08.842Z,34.67
2024-05-09T04:15:12.150Z,34.60
2024-05-09T04:16:08.804Z,34.70
2024-05-09T04:17:08.939Z,34.72
2024-05-09T04:18:08.961Z,34.70
2024-05-09T04:19:08.940Z,34.67
2024-05-09T04:20:12.421Z,34.74
2024-05-09T04:21:09.925Z,34.73
2024-05-09T04:22:08.791Z,34.72
2024-05-09T04:23:09.541Z,34.74
2024-05-09T04:24:16.758Z,34.79
2024-05-09T04:25:16.800Z,34.78
2024-05-09T04:26:16.847Z,34.81
2024-05-09T04:27:16.866Z,34.75
2024-05-09T04:28:16.766Z,34.79
2024-05-09T04:29:16.855Z,34.78
2024-05-09T04:30:25.518Z,34.80
2024-05-09T04:31:28.791Z,34.80
2024-05-09T04:32:28.888Z,34.80
2024-05-09T04:33:28.935Z,34.79
2024-05-09T04:34:28.872Z,34.79
2024-05-09T04:35:28.837Z,34.79
2024-05-09T04:36:28.811Z,34.74
2024-05-09T04:37:28.794Z,34.71
2024-05-09T04:38:28.821Z,34.71
2024-05-09T04:39:28.777Z,34.70
2024-05-09T04:40:33.939Z,34.70
2024-05-09T04:41:29.932Z,34.66
2024-05-09T04:42:28.786Z,34.69
2024-05-09T04:43:28.799Z,34.68
2024-05-09T04:44:28.937Z,34.65
2024-05-09T04:45:28.826Z,34.61
2024-05-09T04:46:28.799Z,34.67
2024-05-09T04:47:28.959Z,34.62
2024-05-09T04:48:29.000Z,34.61
2024-05-09T04:49:28.910Z,34.64
2024-05-09T04:50:35.950Z,34.56
2024-05-09T04:51:29.820Z,34.54
2024-05-09T04:52:28.802Z,34.56
2024-05-09T04:53:28.857Z,34.51
2024-05-09T04:54:35.829Z,34.56
2024-05-09T04:55:29.794Z,34.55
2024-05-09T04:56:28.901Z,34.55
2024-05-09T04:57:28.835Z,34.53
2024-05-09T04:58:28.865Z,34.51
2024-05-09T04:59:28.856Z,34.50
2024-05-09T05:00:35.427Z,34.48
2024-05-09T05:01:29.989Z,34.48
2024-05-09T05:02:28.901Z,34.45
2024-05-09T05:03:29.071Z,34.41
2024-05-09T05:04:28.884Z,34.48
2024-05-09T05:05:28.895Z,34.47
2024-05-09T05:06:28.824Z,34.40
2024-05-09T05:07:28.836Z,34.43
2024-05-09T05:08:28.835Z,34.43
2024-05-09T05:09:28.849Z,34.40
2024-05-09T05:10:35.035Z,34.39
2024-05-09T05:11:30.020Z,34.44
2024-05-09T05:12:28.994Z,34.39
2024-05-09T05:13:28.935Z,34.38
2024-05-09T05:14:29.106Z,34.38
2024-05-09T05:15:28.954Z,34.44
2024-05-09T05:16:28.943Z,34.32
2024-05-09T05:17:29.118Z,34.34
2024-05-09T05:18:29.242Z,34.33
2024-05-09T05:19:29.183Z,34.35
2024-05-09T05:20:33.548Z,34.33
2024-05-09T05:21:30.184Z,34.29
2024-05-09T05:22:29.094Z,34.34
2024-05-09T05:23:29.180Z,34.39
2024-05-09T05:24:29.085Z,34.30
2024-05-09T05:25:29.085Z,34.33
2024-05-09T05:26:29.073Z,34.32
2024-05-09T05:27:29.072Z,34.32
2024-05-09T05:28:29.144Z,34.28
2024-05-09T05:29:29.205Z,34.28
2024-05-09T05:30:34.318Z,34.31
2024-05-09T05:31:30.265Z,34.28
2024-05-09T05:32:29.437Z,34.27
2024-05-09T05:33:29.385Z,34.27
2024-05-09T05:34:29.294Z,34.28
2024-05-09T05:35:29.373Z,34.27
2024-05-09T05:36:29.238Z,34.24
2024-05-09T05:37:29.237Z,34.28
2024-05-09T05:38:29.306Z,34.24
2024-05-09T05:39:29.229Z,34.24
2024-05-09T05:40:36.076Z,34.23
2024-05-09T05:41:30.383Z,34.27
2024-05-09T05:42:29.321Z,34.22
2024-05-09T05:43:29.273Z,34.26
2024-05-09T05:44:29.334Z,34.21
2024-05-09T05:45:29.289Z,34.25
2024-05-09T05:46:29.284Z,34.25
2024-05-09T05:47:29.379Z,34.19
2024-05-09T05:48:29.385Z,34.15
2024-05-09T05:49:29.402Z,34.18
2024-05-09T05:50:35.485Z,34.14
2024-05-09T05:51:30.361Z,34.10
2024-05-09T05:52:29.333Z,34.13
2024-05-09T05:53:29.428Z,34.12
2024-05-09T05:54:29.345Z,34.07
2024-05-09T05:55:29.350Z,34.07
2024-05-09T05:56:29.371Z,34.03
2024-05-09T05:57:29.475Z,34.06
2024-05-09T05:58:29.347Z,34.02
2024-05-09T05:59:29.536Z,34.01
2024-05-09T06:00:35.519Z,33.99
2024-05-09T06:01:30.463Z,33.96
2024-05-09T06:02:29.447Z,33.93
2024-05-09T06:03:29.610Z,33.94
2024-05-09T06:04:29.414Z,33.87
2024-05-09T06:05:29.465Z,33.88
2024-05-09T06:06:29.393Z,33.84
2024-05-09T06:07:29.407Z,33.80
2024-05-09T06:08:30.544Z,33.81
2024-05-09T06:09:29.384Z,33.75
2024-05-09T06:10:35.223Z,33.75
2024-05-09T06:11:30.503Z,33.69
2024-05-09T06:12:29.498Z,33.75
2024-05-09T06:13:29.409Z,33.72
2024-05-09T06:14:29.534Z,33.70
2024-05-09T06:15:29.443Z,33.65
2024-05-09T06:16:29.396Z,33.59
2024-05-09T06:17:29.570Z,33.62
2024-05-09T06:18:29.591Z,33.54
2024-05-09T06:19:29.508Z,33.47
2024-05-09T06:20:35.336Z,33.34
2024-05-09T06:21:30.465Z,33.22
2024-05-09T06:22:29.403Z,33.04
2024-05-09T06:23:29.437Z,32.94
2024-05-09T06:24:29.415Z,32.87
2024-05-09T06:25:29.440Z,32.75
2024-05-09T06:26:29.531Z,32.70
2024-05-09T06:27:29.410Z,32.60
2024-05-09T06:28:29.448Z,32.55
2024-05-09T06:29:29.490Z,32.61
2024-05-09T06:30:37.080Z,32.58
2024-05-09T06:31:30.438Z,32.59
2024-05-09T06:32:29.549Z,32.60
2024-05-09T06:33:29.810Z,32.64
2024-05-09T06:34:29.486Z,32.57
2024-05-09T06:35:29.573Z,32.56
2024-05-09T06:36:29.425Z,32.49
2024-05-09T06:37:29.423Z,32.44
2024-05-09T06:38:29.473Z,32.38
2024-05-09T06:39:29.434Z,32.43
2024-05-09T06:40:36.374Z,32.42
2024-05-09T06:41:30.542Z,32.34
2024-05-09T06:42:29.444Z,32.28
2024-05-09T06:43:29.450Z,32.28
2024-05-09T06:44:29.607Z,32.31
2024-05-09T06:45:29.442Z,32.30
2024-05-09T06:46:29.479Z,32.29
2024-05-09T06:47:29.583Z,32.23
2024-05-09T06:48:29.647Z,32.24
2024-05-09T06:49:29.467Z,32.26
2024-05-09T06:50:35.759Z,32.28
2024-05-09T06:51:30.461Z,32.25
2024-05-09T06:52:29.459Z,32.27
2024-05-09T06:53:29.632Z,32.24
2024-05-09T06:54:29.459Z,32.26
2024-05-09T06:55:29.443Z,32.24
2024-05-09T06:56:29.458Z,32.24
2024-05-09T06:57:29.438Z,32.19
2024-05-09T06:58:29.458Z,32.19
2024-05-09T06:59:29.585Z,32.25
2024-05-09T07:00:35.852Z,32.28
2024-05-09T07:01:30.526Z,32.26
2024-05-09T07:02:29.534Z,32.28
2024-05-09T07:03:29.616Z,32.25
2024-05-09T07:04:29.580Z,32.33
2024-05-09T07:05:29.520Z,32.27
2024-05-09T07:06:29.505Z,32.35
2024-05-09T07:07:29.462Z,32.28
2024-05-09T07:08:29.523Z,32.34
2024-05-09T07:09:29.455Z,32.28
2024-05-09T07:10:34.770Z,32.32
2024-05-09T07:11:30.605Z,32.26
2024-05-09T07:12:29.597Z,32.33
2024-05-09T07:13:29.454Z,32.29
2024-05-09T07:14:29.688Z,32.32
2024-05-09T07:15:29.460Z,32.26
2024-05-09T07:16:29.467Z,32.26
2024-05-09T07:17:29.717Z,32.25
2024-05-09T07:18:29.785Z,32.23
2024-05-09T07:19:29.596Z,32.13
2024-05-09T07:20:34.493Z,32.13
2024-05-09T07:21:30.495Z,32.13
2024-05-09T07:22:29.514Z,32.07
2024-05-09T07:23:29.519Z,32.07
2024-05-09T07:24:29.483Z,32.02
2024-05-09T07:25:29.722Z,31.97
2024-05-09T07:26:29.532Z,31.97
2024-05-09T07:27:29.504Z,31.95
2024-05-09T07:28:29.508Z,31.89
2024-05-09T07:29:29.606Z,31.91
2024-05-09T07:30:33.385Z,31.88
2024-05-09T07:31:30.615Z,31.93
2024-05-09T07:32:29.719Z,31.88
2024-05-09T07:33:29.771Z,31.82
2024-05-09T07:34:29.661Z,31.80
2024-05-09T07:35:29.791Z,31.79
2024-05-09T07:36:29.578Z,31.81
2024-05-09T07:37:29.609Z,31.75
2024-05-09T07:38:29.754Z,31.72
2024-05-09T07:39:29.623Z,31.67
2024-05-09T07:40:35.639Z,31.66
2024-05-09T07:41:30.794Z,31.59
2024-05-09T07:42:29.647Z,31.62
2024-05-09T07:43:29.639Z,31.64
2024-05-09T07:44:29.786Z,31.64
2024-05-09T07:45:45.835Z,31.68
2024-05-09T07:47:37.002Z,31.65
2024-05-09T07:48:57.294Z,31.60
2024-05-09T07:50:01.224Z,31.57
2024-05-09T07:53:08.519Z,31.59
2024-05-09T07:53:32.638Z,31.58
2024-05-09T07:53:40.545Z,31.48
2024-05-09T07:54:30.842Z,31.59
2024-05-09T07:55:29.927Z,31.52
2024-05-09T07:56:30.075Z,31.54
2024-05-09T07:57:29.709Z,31.51
2024-05-09T07:58:29.679Z,31.51
2024-05-09T07:59:30.100Z,31.47
2024-05-09T08:00:31.814Z,31.49
2024-05-09T08:01:29.895Z,31.48
2024-05-09T08:02:29.965Z,31.41
2024-05-09T08:03:29.896Z,31.45
2024-05-09T08:04:30.059Z,31.45
2024-05-09T08:05:30.090Z,31.45
2024-05-09T08:06:29.916Z,31.40
2024-05-09T08:07:29.872Z,31.41
2024-05-09T08:08:29.932Z,31.40
2024-05-09T08:09:29.951Z,31.41
2024-05-09T08:10:29.992Z,31.41
2024-05-09T08:11:30.078Z,31.36
2024-05-09T08:12:30.074Z,31.45
2024-05-09T08:13:30.012Z,31.35
2024-05-09T08:14:30.076Z,31.38
2024-05-09T08:15:30.111Z,31.38
2024-05-09T08:16:30.230Z,31.34
2024-05-09T08:17:30.210Z,31.34
2024-05-09T08:18:30.538Z,31.34
2024-05-09T08:19:30.209Z,31.35
2024-05-09T08:20:33.727Z,31.33
2024-05-09T08:21:31.310Z,31.35
2024-05-09T08:22:30.275Z,31.33
2024-05-09T08:23:30.283Z,31.37
2024-05-09T08:24:30.409Z,31.36
2024-05-09T08:25:30.305Z,31.33
2024-05-09T08:26:30.303Z,31.29
2024-05-09T08:27:30.361Z,31.34
2024-05-09T08:28:30.355Z,31.27
2024-05-09T08:29:30.320Z,31.28
2024-05-09T08:30:36.365Z,31.23
2024-05-09T08:31:31.534Z,31.18
2024-05-09T08:32:30.461Z,31.13
2024-05-09T08:33:30.526Z,31.16
2024-05-09T08:34:30.442Z,31.15
2024-05-09T08:35:30.370Z,31.14
2024-05-09T08:36:30.459Z,31.13
2024-05-09T08:37:35.007Z,31.09
2024-05-09T08:38:31.405Z,31.07
2024-05-09T08:39:30.409Z,31.07
2024-05-09T08:40:35.012Z,31.02
2024-05-09T08:41:31.376Z,31.00
2024-05-09T08:42:30.436Z,31.00
2024-05-09T08:43:30.422Z,30.98
2024-05-09T08:44:30.427Z,31.01
2024-05-09T08:45:30.549Z,30.98
2024-05-09T08:46:30.462Z,30.97
2024-05-09T08:47:30.479Z,30.99
2024-05-09T08:48:30.641Z,30.99
2024-05-09T08:49:30.588Z,30.94
2024-05-09T08:50:37.864Z,30.95
2024-05-09T08:51:31.426Z,30.95
2024-05-09T08:52:30.448Z,30.95
2024-05-09T08:53:30.382Z,30.93
2024-05-09T08:54:30.521Z,30.96
2024-05-09T08:55:30.410Z,30.96
2024-05-09T08:56:30.412Z,30.96
2024-05-09T08:57:30.451Z,30.94
2024-05-09T08:58:30.418Z,30.97
2024-05-09T08:59:30.428Z,30.94
2024-05-09T09:00:36.567Z,30.93
2024-05-09T09:01:31.513Z,30.96
2024-05-09T09:02:30.629Z,30.96
2024-05-09T09:03:30.761Z,30.99
2024-05-09T09:04:30.649Z,30.98
2024-05-09T09:05:30.633Z,30.96
2024-05-09T09:06:30.495Z,30.95
2024-05-09T09:07:30.493Z,30.92
2024-05-09T09:08:30.443Z,30.95
2024-05-09T09:09:30.497Z,30.94
2024-05-09T09:10:32.503Z,30.97
2024-05-09T09:11:30.504Z,30.92
2024-05-09T09:12:30.479Z,30.91
2024-05-09T09:13:30.441Z,30.92
2024-05-09T09:14:30.435Z,30.94
2024-05-09T09:15:30.477Z,30.93
2024-05-09T09:16:30.516Z,30.87
2024-05-09T09:17:30.552Z,30.92
2024-05-09T09:18:31.044Z,30.86
2024-05-09T09:19:30.521Z,30.90
2024-05-09T09:20:36.215Z,30.86
2024-05-09T09:21:31.508Z,30.90
2024-05-09T09:22:30.455Z,30.92
2024-05-09T09:23:30.791Z,30.93
2024-05-09T09:24:30.475Z,30.88
2024-05-09T09:25:30.452Z,30.85
2024-05-09T09:26:30.458Z,30.92
2024-05-09T09:27:30.520Z,30.91
2024-05-09T09:28:30.463Z,30.84
2024-05-09T09:29:30.450Z,30.85
2024-05-09T09:30:36.583Z,30.88
2024-05-09T09:31:31.548Z,30.89
2024-05-09T09:32:30.603Z,30.87
2024-05-09T09:33:30.515Z,30.84
2024-05-09T09:34:30.645Z,30.90
2024-05-09T09:35:30.480Z,30.82
2024-05-09T09:36:30.484Z,30.78
2024-05-09T09:37:30.487Z,30.75
2024-05-09T09:38:30.492Z,30.72
2024-05-09T09:39:30.514Z,30.81
2024-05-09T09:40:32.959Z,30.75
2024-05-09T09:41:30.485Z,30.74
2024-05-09T09:42:30.507Z,30.75
2024-05-09T09:43:30.472Z,30.71
2024-05-09T09:44:30.527Z,30.79
2024-05-09T09:45:30.547Z,30.75
2024-05-09T09:46:30.505Z,30.76
2024-05-09T09:47:30.616Z,30.77
2024-05-09T09:48:30.726Z,30.80
2024-05-09T09:49:30.482Z,30.76
2024-05-09T09:50:34.474Z,30.73
2024-05-09T09:51:30.524Z,30.74
2024-05-09T09:52:30.504Z,30.72
2024-05-09T09:53:30.455Z,30.79
2024-05-09T09:54:30.538Z,30.73
2024-05-09T09:55:30.483Z,30.78
2024-05-09T09:56:30.504Z,30.76
2024-05-09T09:57:30.478Z,30.76
2024-05-09T09:58:30.573Z,30.78
2024-05-09T09:59:30.481Z,30.78
2024-05-09T10:00:33.209Z,30.81
2024-05-09T10:01:30.549Z,30.79
2024-05-09T10:02:30.689Z,30.75
2024-05-09T10:03:30.628Z,30.80
2024-05-09T10:04:30.558Z,30.78
2024-05-09T10:05:30.965Z,30.78
2024-05-09T10:06:30.598Z,30.76
2024-05-09T10:07:30.485Z,30.75
2024-05-09T10:08:30.489Z,30.80
2024-05-09T10:09:30.519Z,30.80
2024-05-09T10:10:32.880Z,30.82
2024-05-09T10:11:31.669Z,30.84
2024-05-09T10:12:30.573Z,30.81
2024-05-09T10:13:30.527Z,30.78
2024-05-09T10:14:30.565Z,30.81
2024-05-09T10:15:30.681Z,30.83
2024-05-09T10:16:30.709Z,30.78
2024-05-09T10:17:30.793Z,30.87
2024-05-09T10:18:32.730Z,30.81
2024-05-09T10:19:30.886Z,30.81
2024-05-09T10:20:32.800Z,30.77
2024-05-09T10:21:30.850Z,30.81
2024-05-09T10:22:30.800Z,30.78
2024-05-09T10:23:30.831Z,30.80
2024-05-09T10:24:30.909Z,30.80
2024-05-09T10:25:31.011Z,30.81
2024-05-09T10:26:30.970Z,30.75
2024-05-09T10:27:31.135Z,30.78
2024-05-09T10:28:31.113Z,30.75
2024-05-09T10:29:31.172Z,30.78
2024-05-09T10:30:35.903Z,30.77
2024-05-09T10:31:32.318Z,30.76
2024-05-09T10:32:31.306Z,30.71
2024-05-09T10:33:31.311Z,30.71
2024-05-09T10:34:31.288Z,30.72
2024-05-09T10:35:31.234Z,30.69
2024-05-09T10:36:31.331Z,30.73
2024-05-09T10:37:31.307Z,30.70
2024-05-09T10:38:31.264Z,30.70
2024-05-09T10:39:31.380Z,30.69
2024-05-09T10:40:32.084Z,30.72
2024-05-09T10:41:31.434Z,30.65
2024-05-09T10:42:31.536Z,30.66
2024-05-09T10:43:31.555Z,30.71
2024-05-09T10:44:31.662Z,30.68
2024-05-09T10:45:31.706Z,30.65
2024-05-09T10:46:31.839Z,30.65
2024-05-09T10:47:31.934Z,30.69
2024-05-09T10:48:31.952Z,30.69
2024-05-09T10:49:32.061Z,30.65
2024-05-09T10:50:34.356Z,30.67
2024-05-09T10:51:32.035Z,30.67
2024-05-09T10:52:32.023Z,30.65
2024-05-09T10:53:32.017Z,30.65
2024-05-09T10:54:32.064Z,30.64
2024-05-09T10:55:32.084Z,30.62
2024-05-09T10:56:32.059Z,30.64
2024-05-09T10:57:32.040Z,30.64
2024-05-09T10:58:32.035Z,30.62
2024-05-09T10:59:32.016Z,30.60
2024-05-09T11:00:35.881Z,30.64
2024-05-09T11:01:32.112Z,30.59
2024-05-09T11:02:32.278Z,30.56
2024-05-09T11:03:32.349Z,30.62
2024-05-09T11:04:32.109Z,30.56
2024-05-09T11:05:32.149Z,30.58
2024-05-09T11:06:32.051Z,30.59
2024-05-09T11:07:32.060Z,30.54
2024-05-09T11:08:32.083Z,30.57
2024-05-09T11:09:32.051Z,30.57
2024-05-09T11:10:34.312Z,30.54
2024-05-09T11:11:32.116Z,30.54
2024-05-09T11:12:32.082Z,30.48
2024-05-09T11:13:32.314Z,30.47
2024-05-09T11:14:32.045Z,30.53
2024-05-09T11:15:32.112Z,30.47
2024-05-09T11:16:32.066Z,30.51
2024-05-09T11:17:32.130Z,30.51
2024-05-09T11:18:35.511Z,30.49
2024-05-09T11:19:33.216Z,30.46
2024-05-09T11:20:35.014Z,30.46
2024-05-09T11:21:32.138Z,30.43
2024-05-09T11:22:32.064Z,30.46
2024-05-09T11:23:32.070Z,30.45
2024-05-09T11:24:32.072Z,30.45
2024-05-09T11:25:32.047Z,30.50
2024-05-09T11:26:32.049Z,30.49
2024-05-09T11:27:32.109Z,30.43
2024-05-09T11:28:32.113Z,30.43
2024-05-09T11:29:32.075Z,30.46
2024-05-09T11:30:32.746Z,30.47
2024-05-09T11:31:32.159Z,30.49
2024-05-09T11:32:32.164Z,30.52
2024-05-09T11:33:32.191Z,30.48
2024-05-09T11:34:32.137Z,30.43
2024-05-09T11:35:32.075Z,30.45
2024-05-09T11:36:32.190Z,30.48
2024-05-09T11:37:34.659Z,30.48
2024-05-09T11:38:32.062Z,30.52
2024-05-09T11:39:32.131Z,30.46
2024-05-09T11:40:34.371Z,30.49
2024-05-09T11:41:32.082Z,30.52
2024-05-09T11:42:32.173Z,30.46
2024-05-09T11:43:32.258Z,30.54
2024-05-09T11:44:32.067Z,30.52
2024-05-09T11:45:32.119Z,30.46
2024-05-09T11:46:32.054Z,30.52
2024-05-09T11:47:32.144Z,30.49
2024-05-09T11:48:32.495Z,30.51
2024-05-09T11:49:32.206Z,30.48
2024-05-09T11:50:35.490Z,30.48
2024-05-09T11:51:32.169Z,30.47
2024-05-09T11:52:32.079Z,30.50
2024-05-09T11:53:32.067Z,30.50
2024-05-09T11:54:32.157Z,30.48
2024-05-09T11:55:32.128Z,30.46
2024-05-09T11:56:32.099Z,30.46
2024-05-09T11:57:32.167Z,30.40
2024-05-09T11:58:32.091Z,30.46
2024-05-09T11:59:32.063Z,30.42
2024-05-09T12:00:36.745Z,30.42
2024-05-09T12:01:33.229Z,30.42
2024-05-09T12:02:32.175Z,30.41
2024-05-09T12:03:32.328Z,30.37
2024-05-09T12:04:32.331Z,30.33
2024-05-09T12:05:32.297Z,30.38
2024-05-09T12:06:32.162Z,30.35
2024-05-09T12:07:32.212Z,30.36
2024-05-09T12:08:32.159Z,30.35
2024-05-09T12:09:32.166Z,30.38
2024-05-09T12:10:34.771Z,30.37
2024-05-09T12:11:32.258Z,30.34
2024-05-09T12:12:33.469Z,30.31
2024-05-09T12:13:32.367Z,30.34
2024-05-09T12:14:32.370Z,30.34
2024-05-09T12:15:32.445Z,30.31
2024-05-09T12:16:32.631Z,30.32
2024-05-09T12:17:32.503Z,30.34
2024-05-09T12:18:32.500Z,30.27
2024-05-09T12:19:32.539Z,30.34
2024-05-09T12:20:36.914Z,30.23
2024-05-09T12:21:33.449Z,30.31
2024-05-09T12:22:32.466Z,30.27
2024-05-09T12:23:32.445Z,30.26
2024-05-09T12:24:32.497Z,30.29
2024-05-09T12:25:32.412Z,30.32
2024-05-09T12:26:32.429Z,30.29
2024-05-09T12:27:32.459Z,30.28
2024-05-09T12:28:32.502Z,30.35
2024-05-09T12:29:33.345Z,30.30
2024-05-09T12:30:37.403Z,30.33
2024-05-09T12:31:33.547Z,30.30
2024-05-09T12:32:32.491Z,30.37
2024-05-09T12:33:32.578Z,30.37
2024-05-09T12:34:32.460Z,30.34
2024-05-09T12:35:32.469Z,30.35
2024-05-09T12:36:32.473Z,30.37
2024-05-09T12:37:32.428Z,30.38
2024-05-09T12:38:32.466Z,30.40
2024-05-09T12:39:32.465Z,30.40
2024-05-09T12:40:36.574Z,30.45
2024-05-09T12:41:33.437Z,30.39
2024-05-09T12:42:33.759Z,30.42
2024-05-09T12:43:32.515Z,30.47
2024-05-09T12:44:32.435Z,30.52
2024-05-09T12:45:32.682Z,30.45
2024-05-09T12:46:32.528Z,30.47
2024-05-09T12:47:32.538Z,30.55
2024-05-09T12:48:32.541Z,30.53
2024-05-09T12:49:32.623Z,30.52
2024-05-09T12:50:34.287Z,30.50
2024-05-09T12:51:32.470Z,30.56
2024-05-09T12:52:32.473Z,30.56
2024-05-09T12:53:32.468Z,30.60
2024-05-09T12:54:32.472Z,30.57